createdAt,value
2019-05-22T00:00:16.051Z,1002.62
2019-05-22T00:01:16.032Z,1002.59
2019-05-22T00:02:16.028Z,1002.63
2019-05-22T00:03:16.021Z,1002.63
2019-05-22T00:04:16.023Z,1002.68
2019-05-22T00:05:16.012Z,1002.68
2019-05-22T00:06:15.992Z,1002.73
2019-05-22T00:07:16.003Z,1002.70
2019-05-22T00:08:15.986Z,1002.67
2019-05-22T00:09:15.976Z,1002.70
2019-05-22T00:10:15.969Z,1002.69
2019-05-22T00:11:15.967Z,1002.67
2019-05-22T00:12:15.954Z,1002.68
2019-05-22T00:13:15.945Z,1002.70
2019-05-22T00:14:15.943Z,1002.74
2019-05-22T00:15:16.092Z,1002.77
2019-05-22T00:16:15.928Z,1002.72
2019-05-22T00:17:15.915Z,1002.76
2019-05-22T00:18:15.906Z,1002.73
2019-05-22T00:19:15.902Z,1002.76
2019-05-22T00:20:15.899Z,1002.75
2019-05-22T00:21:15.903Z,1002.82
2019-05-22T00:22:15.902Z,1002.83
2019-05-22T00:23:15.889Z,1002.80
2019-05-22T00:24:15.884Z,1002.78
2019-05-22T00:25:15.910Z,1002.81
2019-05-22T00:26:15.884Z,1002.78
2019-05-22T00:27:15.879Z,1002.81
2019-05-22T00:28:15.870Z,1002.83
2019-05-22T00:29:15.864Z,1002.80
2019-05-22T00:30:15.857Z,1002.76
2019-05-22T00:31:15.849Z,1002.72
2019-05-22T00:32:15.928Z,1002.74
2019-05-22T00:33:15.836Z,1002.77
2019-05-22T00:34:15.821Z,1002.83
2019-05-22T00:35:15.811Z,1002.79
2019-05-22T00:36:15.802Z,1002.76
2019-05-22T00:37:15.799Z,1002.79
2019-05-22T00:38:15.799Z,1002.82
2019-05-22T00:39:15.784Z,1002.83
2019-05-22T00:40:15.779Z,1002.81
2019-05-22T00:41:15.769Z,1002.76
2019-05-22T00:42:15.762Z,1002.80
2019-05-22T00:43:15.768Z,1002.82
2019-05-22T00:44:15.746Z,1002.79
2019-05-22T00:45:15.742Z,1002.81
2019-05-22T00:46:15.729Z,1002.82
2019-05-22T00:47:15.727Z,1002.86
2019-05-22T00:48:15.714Z,1002.80
2019-05-22T00:49:15.708Z,1002.83
2019-05-22T00:50:15.697Z,1002.87
2019-05-22T00:51:15.686Z,1002.85
2019-05-22T00:52:15.683Z,1002.82
2019-05-22T00:53:15.674Z,1002.87
2019-05-22T00:54:15.675Z,1002.86
2019-05-22T00:55:15.664Z,1002.84
2019-05-22T00:56:15.653Z,1002.89
2019-05-22T00:57:15.642Z,1002.87
2019-05-22T00:58:15.639Z,1002.84
2019-05-22T00:59:15.630Z,1002.86
2019-05-22T01:00:15.622Z,1002.84
2019-05-22T01:01:15.608Z,1002.83
2019-05-22T01:02:15.623Z,1002.86
2019-05-22T01:03:15.615Z,1002.85
2019-05-22T01:04:15.609Z,1002.82
2019-05-22T01:05:15.614Z,1002.80
2019-05-22T01:06:15.591Z,1002.85
2019-05-22T01:07:15.582Z,1002.83
2019-05-22T01:08:15.591Z,1002.88
2019-05-22T01:09:15.592Z,1002.86
2019-05-22T01:10:15.578Z,1002.86
2019-05-22T01:11:15.583Z,1002.89
2019-05-22T01:12:15.567Z,1002.92
2019-05-22T01:13:15.560Z,1002.86
2019-05-22T01:14:15.570Z,1002.87
2019-05-22T01:15:15.565Z,1002.87
2019-05-22T01:16:15.564Z,1002.90
2019-05-22T01:17:15.552Z,1002.92
2019-05-22T01:18:15.540Z,1002.94
2019-05-22T01:19:15.536Z,1002.94
2019-05-22T01:20:15.524Z,1002.98
2019-05-22T01:21:15.528Z,1002.97
2019-05-22T01:22:15.510Z,1003.00
2019-05-22T01:23:15.502Z,1002.97
2019-05-22T01:24:15.492Z,1003.02
2019-05-22T01:25:15.483Z,1003.04
2019-05-22T01:26:15.498Z,1003.06
2019-05-22T01:27:15.485Z,1003.05
2019-05-22T01:28:15.496Z,1003.08
2019-05-22T01:29:15.484Z,1003.06
2019-05-22T01:30:15.485Z,1003.05
2019-05-22T01:31:15.520Z,1003.10
2019-05-22T01:32:15.471Z,1003.06
2019-05-22T01:33:15.454Z,1003.05
2019-05-22T01:34:15.449Z,1003.07
2019-05-22T01:35:15.449Z,1003.06
2019-05-22T01:36:15.443Z,1003.02
2019-05-22T01:37:15.447Z,1002.96
2019-05-22T01:38:15.433Z,1003.07
2019-05-22T01:39:15.477Z,1003.00
2019-05-22T01:40:15.414Z,1002.98
2019-05-22T01:41:15.407Z,1003.03
2019-05-22T01:42:15.612Z,1002.97
2019-05-22T01:43:15.388Z,1003.02
2019-05-22T01:44:15.392Z,1002.96
2019-05-22T01:45:15.388Z,1003.00
2019-05-22T01:46:15.382Z,1002.98
2019-05-22T01:47:15.373Z,1002.97
2019-05-22T01:48:15.389Z,1002.95
2019-05-22T01:49:15.367Z,1003.00
2019-05-22T01:50:15.358Z,1002.98
2019-05-22T01:51:15.356Z,1002.99
2019-05-22T01:52:15.338Z,1002.98
2019-05-22T01:53:15.336Z,1002.97
2019-05-22T01:54:15.320Z,1003.03
2019-05-22T01:55:15.322Z,1002.96
2019-05-22T01:56:15.317Z,1003.03
2019-05-22T01:57:15.300Z,1002.99
2019-05-22T01:58:15.291Z,1002.99
2019-05-22T01:59:15.288Z,1003.00
2019-05-22T02:00:15.274Z,1003.00
2019-05-22T02:01:15.271Z,1002.99
2019-05-22T02:02:15.257Z,1002.97
2019-05-22T02:03:15.247Z,1003.03
2019-05-22T02:04:15.264Z,1002.98
2019-05-22T02:05:15.240Z,1002.99
2019-05-22T02:06:15.226Z,1002.99
2019-05-22T02:07:15.217Z,1002.97
2019-05-22T02:08:15.208Z,1002.99
2019-05-22T02:09:15.198Z,1002.98
2019-05-22T02:10:15.201Z,1002.96
2019-05-22T02:11:15.184Z,1002.99
2019-05-22T02:12:15.176Z,1002.97
2019-05-22T02:13:15.169Z,1003.00
2019-05-22T02:14:15.159Z,1003.01
2019-05-22T02:15:15.154Z,1002.98
2019-05-22T02:16:15.167Z,1003.00
2019-05-22T02:17:15.157Z,1003.00
2019-05-22T02:18:15.147Z,1003.02
2019-05-22T02:19:15.140Z,1003.00
2019-05-22T02:20:15.141Z,1003.00
2019-05-22T02:21:15.138Z,1003.04
2019-05-22T02:22:15.129Z,1002.99
2019-05-22T02:23:15.126Z,1003.03
2019-05-22T02:24:15.123Z,1003.04
2019-05-22T02:25:15.123Z,1002.94
2019-05-22T02:26:15.103Z,1003.03
2019-05-22T02:27:15.101Z,1002.98
2019-05-22T02:28:15.100Z,1002.97
2019-05-22T02:29:15.094Z,1002.99
2019-05-22T02:30:15.087Z,1003.00
2019-05-22T02:31:15.092Z,1003.02
2019-05-22T02:32:15.071Z,1003.06
2019-05-22T02:33:15.066Z,1003.06
2019-05-22T02:34:15.097Z,1003.07
2019-05-22T02:35:15.047Z,1003.10
2019-05-22T02:36:15.049Z,1003.10
2019-05-22T02:37:15.054Z,1003.06
2019-05-22T02:38:15.047Z,1003.16
2019-05-22T02:39:15.039Z,1003.09
2019-05-22T02:40:15.038Z,1003.09
2019-05-22T02:41:15.037Z,1003.11
2019-05-22T02:42:15.045Z,1003.09
2019-05-22T02:43:15.003Z,1003.08
2019-05-22T02:44:14.994Z,1003.09
2019-05-22T02:45:14.985Z,1003.07
2019-05-22T02:46:14.981Z,1003.07
2019-05-22T02:47:19.834Z,1003.08
2019-05-22T02:48:15.964Z,1003.06
2019-05-22T02:49:14.953Z,1003.09
2019-05-22T02:50:14.961Z,1003.09
2019-05-22T02:51:14.941Z,1003.09
2019-05-22T02:52:14.938Z,1003.08
2019-05-22T02:53:14.956Z,1003.09
2019-05-22T02:54:14.909Z,1003.12
2019-05-22T02:55:14.919Z,1003.15
2019-05-22T02:56:14.915Z,1003.11
2019-05-22T02:57:14.914Z,1003.14
2019-05-22T02:58:14.906Z,1003.12
2019-05-22T02:59:14.888Z,1003.15
2019-05-22T03:00:14.885Z,1003.10
2019-05-22T03:01:14.874Z,1003.14
2019-05-22T03:02:14.877Z,1003.12
2019-05-22T03:03:14.858Z,1003.11
2019-05-22T03:04:14.861Z,1003.16
2019-05-22T03:05:14.841Z,1003.15
2019-05-22T03:06:14.837Z,1003.20
2019-05-22T03:07:14.831Z,1003.17
2019-05-22T03:08:14.823Z,1003.22
2019-05-22T03:09:14.899Z,1003.29
2019-05-22T03:10:14.806Z,1003.22
2019-05-22T03:11:14.798Z,1003.24
2019-05-22T03:12:14.801Z,1003.20
2019-05-22T03:13:14.798Z,1003.19
2019-05-22T03:14:14.812Z,1003.15
2019-05-22T03:15:14.796Z,1003.25
2019-05-22T03:16:14.792Z,1003.30
2019-05-22T03:17:14.779Z,1003.30
2019-05-22T03:18:14.773Z,1003.28
2019-05-22T03:19:14.775Z,1003.25
2019-05-22T03:20:14.784Z,1003.25
2019-05-22T03:21:14.784Z,1003.16
2019-05-22T03:22:14.773Z,1003.23
2019-05-22T03:23:14.785Z,1003.27
2019-05-22T03:24:14.781Z,1003.27
2019-05-22T03:25:14.774Z,1003.30
2019-05-22T03:26:14.781Z,1003.25
2019-05-22T03:27:14.758Z,1003.26
2019-05-22T03:28:14.752Z,1003.26
2019-05-22T03:29:14.747Z,1003.32
2019-05-22T03:30:14.751Z,1003.32
2019-05-22T03:31:14.747Z,1003.30
2019-05-22T03:32:14.740Z,1003.30
2019-05-22T03:33:14.743Z,1003.27
2019-05-22T03:34:14.721Z,1003.32
2019-05-22T03:35:14.731Z,1003.34
2019-05-22T03:36:14.702Z,1003.35
2019-05-22T03:37:14.764Z,1003.35
2019-05-22T03:38:14.691Z,1003.36
2019-05-22T03:39:14.687Z,1003.35
2019-05-22T03:40:14.681Z,1003.31
2019-05-22T03:41:14.674Z,1003.31
2019-05-22T03:42:14.669Z,1003.28
2019-05-22T03:43:14.671Z,1003.40
2019-05-22T03:44:14.653Z,1003.30
2019-05-22T03:45:14.653Z,1003.35
2019-05-22T03:46:14.649Z,1003.35
2019-05-22T03:47:14.635Z,1003.35
2019-05-22T03:48:14.639Z,1003.32
2019-05-22T03:49:29.292Z,1003.36
2019-05-22T03:50:15.613Z,1003.36
2019-05-22T03:51:14.646Z,1003.37
2019-05-22T03:52:14.617Z,1003.37
2019-05-22T03:53:14.626Z,1003.40
2019-05-22T03:54:14.604Z,1003.43
2019-05-22T03:55:14.593Z,1003.40
2019-05-22T03:56:14.607Z,1003.33
2019-05-22T03:57:14.607Z,1003.39
2019-05-22T03:58:14.586Z,1003.39
2019-05-22T03:59:14.588Z,1003.38
2019-05-22T04:00:14.563Z,1003.41
2019-05-22T04:01:14.559Z,1003.40
2019-05-22T04:02:14.574Z,1003.44
2019-05-22T04:03:14.559Z,1003.43
2019-05-22T04:04:14.557Z,1003.46
2019-05-22T04:05:14.542Z,1003.43
2019-05-22T04:06:14.546Z,1003.46
2019-05-22T04:07:14.535Z,1003.44
2019-05-22T04:08:14.532Z,1003.46
2019-05-22T04:09:14.507Z,1003.50
2019-05-22T04:10:14.507Z,1003.47
2019-05-22T04:11:14.491Z,1003.51
2019-05-22T04:12:14.488Z,1003.53
2019-05-22T04:13:14.512Z,1003.51
2019-05-22T04:14:14.494Z,1003.51
2019-05-22T04:15:14.593Z,1003.56
2019-05-22T04:16:14.499Z,1003.57
2019-05-22T04:17:14.489Z,1003.64
2019-05-22T04:18:14.492Z,1003.62
2019-05-22T04:19:14.475Z,1003.60
2019-05-22T04:20:14.466Z,1003.62
2019-05-22T04:21:14.484Z,1003.63
2019-05-22T04:22:14.466Z,1003.62
2019-05-22T04:23:14.447Z,1003.60
2019-05-22T04:24:14.442Z,1003.55
2019-05-22T04:25:14.430Z,1003.61
2019-05-22T04:26:14.434Z,1003.62
2019-05-22T04:27:14.419Z,1003.62
2019-05-22T04:28:14.411Z,1003.61
2019-05-22T04:29:14.404Z,1003.69
2019-05-22T04:30:14.408Z,1003.60
2019-05-22T04:31:14.400Z,1003.63
2019-05-22T04:32:14.384Z,1003.63
2019-05-22T04:33:14.374Z,1003.66
2019-05-22T04:34:14.357Z,1003.70
2019-05-22T04:35:14.362Z,1003.66
2019-05-22T04:36:14.354Z,1003.65
2019-05-22T04:37:14.387Z,1003.68
2019-05-22T04:38:14.369Z,1003.65
2019-05-22T04:39:14.361Z,1003.68
2019-05-22T04:40:14.351Z,1003.70
2019-05-22T04:41:14.346Z,1003.71
2019-05-22T04:42:14.337Z,1003.71
2019-05-22T04:43:14.353Z,1003.74
2019-05-22T04:44:14.332Z,1003.72
2019-05-22T04:45:14.317Z,1003.73
2019-05-22T04:46:14.311Z,1003.77
2019-05-22T04:47:14.305Z,1003.76
2019-05-22T04:48:14.390Z,1003.78
2019-05-22T04:49:14.300Z,1003.80
2019-05-22T04:50:14.271Z,1003.74
2019-05-22T04:51:14.279Z,1003.72
2019-05-22T04:52:14.251Z,1003.80
2019-05-22T04:53:14.253Z,1003.77
2019-05-22T04:54:14.252Z,1003.77
2019-05-22T04:55:14.234Z,1003.76
2019-05-22T04:56:14.224Z,1003.75
2019-05-22T04:57:14.229Z,1003.77
2019-05-22T04:58:14.215Z,1003.78
2019-05-22T04:59:14.284Z,1003.83
2019-05-22T05:00:14.191Z,1003.84
2019-05-22T05:01:14.187Z,1003.77
2019-05-22T05:02:14.176Z,1003.79
2019-05-22T05:03:14.172Z,1003.78
2019-05-22T05:04:14.158Z,1003.84
2019-05-22T05:05:14.161Z,1003.86
2019-05-22T05:06:14.182Z,1003.79
2019-05-22T05:07:14.131Z,1003.85
2019-05-22T05:08:14.133Z,1003.84
2019-05-22T05:09:14.131Z,1003.87
2019-05-22T05:10:14.120Z,1003.90
2019-05-22T05:11:14.103Z,1003.89
2019-05-22T05:12:14.094Z,1003.87
2019-05-22T05:13:14.088Z,1003.85
2019-05-22T05:14:14.083Z,1003.91
2019-05-22T05:15:14.072Z,1003.90
2019-05-22T05:16:14.070Z,1003.88
2019-05-22T05:17:14.059Z,1003.87
2019-05-22T05:18:14.053Z,1003.91
2019-05-22T05:19:14.037Z,1003.91
2019-05-22T05:20:22.173Z,1003.89
2019-05-22T05:21:15.029Z,1003.92
2019-05-22T05:22:14.035Z,1003.97
2019-05-22T05:23:14.065Z,1003.98
2019-05-22T05:24:14.041Z,1003.95
2019-05-22T05:25:14.029Z,1003.99
2019-05-22T05:26:14.018Z,1004.07
2019-05-22T05:27:14.080Z,1004.00
2019-05-22T05:28:14.001Z,1004.14
2019-05-22T05:29:13.996Z,1004.06
2019-05-22T05:30:14.000Z,1004.11
2019-05-22T05:31:13.979Z,1004.07
2019-05-22T05:32:13.995Z,1004.13
2019-05-22T05:33:14.000Z,1004.13
2019-05-22T05:34:13.962Z,1004.09
2019-05-22T05:35:13.949Z,1004.00
2019-05-22T05:36:13.940Z,1004.13
2019-05-22T05:37:13.944Z,1004.12
2019-05-22T05:38:13.932Z,1004.09
2019-05-22T05:39:13.916Z,1004.14
2019-05-22T05:40:13.909Z,1004.17
2019-05-22T05:41:13.903Z,1004.26
2019-05-22T05:42:13.899Z,1004.27
2019-05-22T05:43:13.887Z,1004.30
2019-05-22T05:44:13.877Z,1004.29
2019-05-22T05:45:13.964Z,1004.24
2019-05-22T05:46:13.877Z,1004.25
2019-05-22T05:47:13.854Z,1004.22
2019-05-22T05:48:13.843Z,1004.31
2019-05-22T05:49:13.846Z,1004.36
2019-05-22T05:50:13.869Z,1004.35
2019-05-22T05:51:13.827Z,1004.35
2019-05-22T05:52:13.838Z,1004.35
2019-05-22T05:53:13.821Z,1004.34
2019-05-22T05:54:13.821Z,1004.39
2019-05-22T05:55:13.809Z,1004.34
2019-05-22T05:56:13.820Z,1004.39
2019-05-22T05:57:13.794Z,1004.35
2019-05-22T05:58:13.786Z,1004.36
2019-05-22T05:59:13.785Z,1004.36
2019-05-22T06:00:13.766Z,1004.42
2019-05-22T06:01:13.787Z,1004.39
2019-05-22T06:02:13.779Z,1004.44
2019-05-22T06:03:13.765Z,1004.40
2019-05-22T06:04:13.761Z,1004.45
2019-05-22T06:05:13.765Z,1004.41
2019-05-22T06:06:13.757Z,1004.43
2019-05-22T06:07:13.767Z,1004.47
2019-05-22T06:08:13.737Z,1004.44
2019-05-22T06:09:13.730Z,1004.51
2019-05-22T06:10:13.739Z,1004.46
2019-05-22T06:11:13.722Z,1004.48
2019-05-22T06:12:13.715Z,1004.49
2019-05-22T06:13:13.731Z,1004.48
2019-05-22T06:14:13.688Z,1004.53
2019-05-22T06:15:13.689Z,1004.52
2019-05-22T06:16:13.688Z,1004.54
2019-05-22T06:17:13.684Z,1004.54
2019-05-22T06:18:13.659Z,1004.52
2019-05-22T06:19:13.667Z,1004.48
2019-05-22T06:20:13.640Z,1004.48
2019-05-22T06:21:13.636Z,1004.47
2019-05-22T06:22:13.623Z,1004.55
2019-05-22T06:23:13.618Z,1004.57
2019-05-22T06:24:13.611Z,1004.59
2019-05-22T06:25:13.711Z,1004.55
2019-05-22T06:26:13.596Z,1004.59
2019-05-22T06:27:13.587Z,1004.61
2019-05-22T06:28:13.588Z,1004.62
2019-05-22T06:29:13.581Z,1004.62
2019-05-22T06:30:13.559Z,1004.61
2019-05-22T06:31:13.556Z,1004.63
2019-05-22T06:32:13.579Z,1004.66
2019-05-22T06:33:13.623Z,1004.69
2019-05-22T06:34:13.536Z,1004.65
2019-05-22T06:35:13.571Z,1004.68
2019-05-22T06:36:13.521Z,1004.71
2019-05-22T06:37:13.529Z,1004.70
2019-05-22T06:38:13.540Z,1004.67
2019-05-22T06:39:13.528Z,1004.75
2019-05-22T06:40:13.507Z,1004.73
2019-05-22T06:41:13.501Z,1004.74
2019-05-22T06:42:13.493Z,1004.74
2019-05-22T06:43:13.501Z,1004.75
2019-05-22T06:44:13.479Z,1004.74
2019-05-22T06:45:13.471Z,1004.75
2019-05-22T06:46:13.486Z,1004.78
2019-05-22T06:47:13.467Z,1004.71
2019-05-22T06:48:13.445Z,1004.75
2019-05-22T06:49:13.441Z,1004.77
2019-05-22T06:50:13.427Z,1004.72
2019-05-22T06:51:19.395Z,1004.75
2019-05-22T06:52:14.407Z,1004.73
2019-05-22T06:53:13.407Z,1004.75
2019-05-22T06:54:13.403Z,1004.75
2019-05-22T06:55:13.405Z,1004.76
2019-05-22T06:56:13.389Z,1004.74
2019-05-22T06:57:13.455Z,1004.77
2019-05-22T06:58:13.373Z,1004.77
2019-05-22T06:59:13.515Z,1004.80
2019-05-22T07:00:17.867Z,1004.76
2019-05-22T07:01:13.366Z,1004.75
2019-05-22T07:02:13.414Z,1004.76
2019-05-22T07:03:13.337Z,1004.80
2019-05-22T07:04:13.329Z,1004.78
2019-05-22T07:05:13.349Z,1004.77
2019-05-22T07:06:13.323Z,1004.82
2019-05-22T07:07:13.316Z,1004.84
2019-05-22T07:08:13.302Z,1004.83
2019-05-22T07:09:13.290Z,1004.85
2019-05-22T07:10:13.375Z,1004.83
2019-05-22T07:11:13.288Z,1004.82
2019-05-22T07:12:13.269Z,1004.88
2019-05-22T07:13:13.260Z,1004.88
2019-05-22T07:14:13.284Z,1004.85
2019-05-22T07:15:13.248Z,1004.87
2019-05-22T07:16:13.261Z,1004.87
2019-05-22T07:17:13.238Z,1004.85
2019-05-22T07:18:13.614Z,1004.89
2019-05-22T07:19:13.212Z,1004.82
2019-05-22T07:20:13.276Z,1004.87
2019-05-22T07:21:13.225Z,1004.89
2019-05-22T07:22:13.197Z,1004.92
2019-05-22T07:23:13.191Z,1004.88
2019-05-22T07:24:13.203Z,1004.88
2019-05-22T07:25:13.172Z,1004.93
2019-05-22T07:26:13.175Z,1004.88
2019-05-22T07:27:13.193Z,1004.92
2019-05-22T07:28:13.168Z,1004.93
2019-05-22T07:29:13.169Z,1004.93
2019-05-22T07:30:13.148Z,1004.95
2019-05-22T07:31:13.222Z,1004.93
2019-05-22T07:32:13.241Z,1004.90
2019-05-22T07:33:13.162Z,1004.96
2019-05-22T07:34:13.139Z,1004.96
2019-05-22T07:35:13.141Z,1004.94
2019-05-22T07:36:16.751Z,1005.00
2019-05-22T07:37:13.097Z,1005.03
2019-05-22T07:38:13.095Z,1005.00
2019-05-22T07:39:13.083Z,1004.98
2019-05-22T07:40:13.078Z,1005.00
2019-05-22T07:41:13.071Z,1005.05
2019-05-22T07:42:13.060Z,1005.00
2019-05-22T07:43:13.073Z,1005.06
2019-05-22T07:44:13.075Z,1005.04
2019-05-22T07:45:13.061Z,1005.06
2019-05-22T07:46:13.064Z,1005.08
2019-05-22T07:47:13.039Z,1005.08
2019-05-22T07:48:13.759Z,1005.08
2019-05-22T07:49:13.037Z,1005.08
2019-05-22T07:50:13.017Z,1005.06
2019-05-22T07:51:13.010Z,1005.10
2019-05-22T07:52:13.003Z,1005.12
2019-05-22T07:53:12.996Z,1005.13
2019-05-22T07:54:12.990Z,1005.14
2019-05-22T07:55:12.979Z,1005.09
2019-05-22T07:56:13.008Z,1005.14
2019-05-22T07:57:12.971Z,1005.16
2019-05-22T07:58:12.959Z,1005.15
2019-05-22T07:59:12.971Z,1005.10
2019-05-22T08:00:12.938Z,1005.16
2019-05-22T08:01:12.931Z,1005.09
2019-05-22T08:02:12.924Z,1005.15
2019-05-22T08:03:12.917Z,1005.14
2019-05-22T08:04:12.910Z,1005.14
2019-05-22T08:05:12.924Z,1005.16
2019-05-22T08:06:12.891Z,1005.14
2019-05-22T08:07:12.885Z,1005.16
2019-05-22T08:08:12.882Z,1005.17
2019-05-22T08:09:12.874Z,1005.16
2019-05-22T08:10:12.873Z,1005.17
2019-05-22T08:11:12.859Z,1005.09
2019-05-22T08:12:12.873Z,1005.12
2019-05-22T08:13:12.865Z,1005.19
2019-05-22T08:14:12.855Z,1005.16
2019-05-22T08:15:12.862Z,1005.10
2019-05-22T08:16:12.843Z,1005.15
2019-05-22T08:17:12.831Z,1005.10
2019-05-22T08:18:12.847Z,1005.10
2019-05-22T08:19:12.830Z,1005.12
2019-05-22T08:20:12.812Z,1005.17
2019-05-22T08:21:12.813Z,1005.06
2019-05-22T08:22:12.800Z,1005.15
2019-05-22T08:23:12.789Z,1005.12
2019-05-22T08:24:12.819Z,1005.12
2019-05-22T08:25:12.766Z,1005.15
2019-05-22T08:26:12.780Z,1005.12
2019-05-22T08:27:12.772Z,1005.12
2019-05-22T08:28:12.765Z,1005.17
2019-05-22T08:29:12.758Z,1005.23
2019-05-22T08:30:12.743Z,1005.22
2019-05-22T08:31:12.736Z,1005.23
2019-05-22T08:32:12.732Z,1005.23
2019-05-22T08:33:12.726Z,1005.22
2019-05-22T08:34:12.720Z,1005.30
2019-05-22T08:35:12.713Z,1005.26
2019-05-22T08:36:12.806Z,1005.31
2019-05-22T08:37:12.695Z,1005.29
2019-05-22T08:38:12.690Z,1005.33
2019-05-22T08:39:12.677Z,1005.27
2019-05-22T08:40:12.710Z,1005.27
2019-05-22T08:41:12.704Z,1005.33
2019-05-22T08:42:12.698Z,1005.30
2019-05-22T08:43:12.799Z,1005.30
2019-05-22T08:44:16.553Z,1005.32
2019-05-22T08:45:12.666Z,1005.31
2019-05-22T08:46:12.679Z,1005.32
2019-05-22T08:47:12.660Z,1005.34
2019-05-22T08:48:12.669Z,1005.38
2019-05-22T08:49:12.729Z,1005.38
2019-05-22T08:50:12.653Z,1005.41
2019-05-22T08:51:12.656Z,1005.39
2019-05-22T08:52:23.127Z,1005.39
2019-05-22T08:53:13.630Z,1005.43
2019-05-22T08:54:12.628Z,1005.37
2019-05-22T08:55:12.611Z,1005.44
2019-05-22T08:56:12.605Z,1005.44
2019-05-22T08:57:12.598Z,1005.44
2019-05-22T08:58:12.639Z,1005.44
2019-05-22T08:59:19.435Z,1005.50
2019-05-22T09:00:13.581Z,1005.56
2019-05-22T09:01:12.592Z,1005.46
2019-05-22T09:02:12.557Z,1005.58
2019-05-22T09:03:12.564Z,1005.57
2019-05-22T09:04:12.681Z,1005.52
2019-05-22T09:05:12.601Z,1005.52
2019-05-22T09:06:12.552Z,1005.57
2019-05-22T09:07:12.521Z,1005.57
2019-05-22T09:08:12.545Z,1005.62
2019-05-22T09:09:12.536Z,1005.54
2019-05-22T09:10:12.521Z,1005.59
2019-05-22T09:11:12.538Z,1005.60
2019-05-22T09:12:12.516Z,1005.59
2019-05-22T09:13:12.529Z,1005.65
2019-05-22T09:14:12.501Z,1005.51
2019-05-22T09:15:12.502Z,1005.54
2019-05-22T09:16:12.516Z,1005.57
2019-05-22T09:17:12.479Z,1005.61
2019-05-22T09:18:12.528Z,1005.60
2019-05-22T09:19:12.729Z,1005.63
2019-05-22T09:20:12.466Z,1005.51
2019-05-22T09:21:12.453Z,1005.57
2019-05-22T09:22:12.487Z,1005.57
2019-05-22T09:23:12.436Z,1005.53
2019-05-22T09:24:12.434Z,1005.62
2019-05-22T09:25:12.768Z,1005.64
2019-05-22T09:26:12.442Z,1005.59
2019-05-22T09:27:12.428Z,1005.64
2019-05-22T09:28:12.419Z,1005.65
2019-05-22T09:29:12.410Z,1005.71
2019-05-22T09:30:12.399Z,1005.66
2019-05-22T09:31:12.436Z,1005.71
2019-05-22T09:32:12.380Z,1005.78
2019-05-22T09:33:12.436Z,1005.73
2019-05-22T09:34:12.368Z,1005.77
2019-05-22T09:35:12.360Z,1005.79
2019-05-22T09:36:12.345Z,1005.76
2019-05-22T09:37:12.339Z,1005.83
2019-05-22T09:38:12.350Z,1005.81
2019-05-22T09:39:12.326Z,1005.74
2019-05-22T09:40:12.318Z,1005.81
2019-05-22T09:41:12.362Z,1005.87
2019-05-22T09:42:12.309Z,1005.90
2019-05-22T09:43:12.318Z,1005.85
2019-05-22T09:44:15.283Z,1005.93
2019-05-22T09:45:12.280Z,1005.87
2019-05-22T09:46:12.269Z,1005.94
2019-05-22T09:47:12.299Z,1005.96
2019-05-22T09:48:12.257Z,1005.94
2019-05-22T09:49:12.258Z,1005.89
2019-05-22T09:50:12.248Z,1005.95
2019-05-22T09:51:12.257Z,1006.01
2019-05-22T09:52:12.232Z,1005.98
2019-05-22T09:53:12.232Z,1005.98
2019-05-22T09:54:12.225Z,1006.03
2019-05-22T09:55:12.213Z,1006.00
2019-05-22T09:56:12.204Z,1006.03
2019-05-22T09:57:12.287Z,1006.01
2019-05-22T09:58:12.188Z,1006.12
2019-05-22T09:59:12.214Z,1006.08
2019-05-22T10:00:12.182Z,1006.05
2019-05-22T10:01:12.301Z,1006.09
2019-05-22T10:02:12.157Z,1006.07
2019-05-22T10:03:12.153Z,1005.99
2019-05-22T10:04:12.143Z,1006.04
2019-05-22T10:05:12.145Z,1006.03
2019-05-22T10:06:12.129Z,1006.07
2019-05-22T10:07:12.120Z,1006.04
2019-05-22T10:08:12.254Z,1006.06
2019-05-22T10:09:12.103Z,1006.09
2019-05-22T10:10:12.120Z,1006.14
2019-05-22T10:11:12.108Z,1006.12
2019-05-22T10:12:12.094Z,1006.10
2019-05-22T10:13:12.184Z,1006.12
2019-05-22T10:14:12.081Z,1006.17
2019-05-22T10:15:12.074Z,1006.11
2019-05-22T10:16:12.102Z,1006.09
2019-05-22T10:17:12.078Z,1006.11
2019-05-22T10:18:12.059Z,1006.13
2019-05-22T10:19:12.055Z,1006.07
2019-05-22T10:20:12.051Z,1006.13
2019-05-22T10:21:12.053Z,1006.13
2019-05-22T10:22:12.034Z,1006.15
2019-05-22T10:23:15.945Z,1006.11
2019-05-22T10:24:12.030Z,1006.07
2019-05-22T10:25:16.445Z,1006.15
2019-05-22T10:26:13.020Z,1006.13
2019-05-22T10:27:12.018Z,1006.12
2019-05-22T10:28:12.020Z,1006.14
2019-05-22T10:29:12.000Z,1006.14
2019-05-22T10:30:11.979Z,1006.15
2019-05-22T10:31:13.774Z,1006.18
2019-05-22T10:32:11.970Z,1006.21
2019-05-22T10:33:11.998Z,1006.22
2019-05-22T10:34:11.949Z,1006.25
2019-05-22T10:35:11.946Z,1006.20
2019-05-22T10:36:11.934Z,1006.23
2019-05-22T10:37:11.957Z,1006.22
2019-05-22T10:38:11.926Z,1006.24
2019-05-22T10:39:11.930Z,1006.24
2019-05-22T10:40:11.901Z,1006.21
2019-05-22T10:41:11.893Z,1006.28
2019-05-22T10:42:11.894Z,1006.23
2019-05-22T10:43:11.892Z,1006.23
2019-05-22T10:44:11.888Z,1006.23
2019-05-22T10:45:11.876Z,1006.30
2019-05-22T10:46:11.960Z,1006.28
2019-05-22T10:47:11.882Z,1006.27
2019-05-22T10:48:11.961Z,1006.28
2019-05-22T10:49:11.881Z,1006.33
2019-05-22T10:50:11.883Z,1006.25
2019-05-22T10:51:11.873Z,1006.30
2019-05-22T10:52:11.868Z,1006.26
2019-05-22T10:53:11.856Z,1006.23
2019-05-22T10:54:11.880Z,1006.26
2019-05-22T10:55:11.936Z,1006.28
2019-05-22T10:56:11.869Z,1006.30
2019-05-22T10:57:11.826Z,1006.32
2019-05-22T10:58:11.819Z,1006.30
2019-05-22T10:59:11.824Z,1006.35
2019-05-22T11:00:11.801Z,1006.38
2019-05-22T11:01:11.791Z,1006.37
2019-05-22T11:02:11.794Z,1006.29
2019-05-22T11:03:11.790Z,1006.41
2019-05-22T11:04:11.787Z,1006.36
2019-05-22T11:05:11.788Z,1006.34
2019-05-22T11:06:11.770Z,1006.34
2019-05-22T11:07:11.765Z,1006.31
2019-05-22T11:08:11.753Z,1006.32
2019-05-22T11:09:11.759Z,1006.31
2019-05-22T11:10:11.749Z,1006.33
2019-05-22T11:11:11.729Z,1006.30
2019-05-22T11:12:11.740Z,1006.33
2019-05-22T11:13:11.731Z,1006.35
2019-05-22T11:14:11.744Z,1006.36
2019-05-22T11:15:11.713Z,1006.36
2019-05-22T11:16:11.712Z,1006.37
2019-05-22T11:17:11.729Z,1006.30
2019-05-22T11:18:11.689Z,1006.31
2019-05-22T11:19:12.166Z,1006.34
2019-05-22T11:20:11.710Z,1006.35
2019-05-22T11:21:11.739Z,1006.30
2019-05-22T11:22:11.675Z,1006.40
2019-05-22T11:23:11.665Z,1006.34
2019-05-22T11:24:11.657Z,1006.34
2019-05-22T11:25:11.654Z,1006.30
2019-05-22T11:26:11.673Z,1006.25
2019-05-22T11:27:11.708Z,1006.28
2019-05-22T11:28:11.640Z,1006.28
2019-05-22T11:29:11.628Z,1006.29
2019-05-22T11:30:11.662Z,1006.36
2019-05-22T11:31:11.640Z,1006.31
2019-05-22T11:32:11.630Z,1006.28
2019-05-22T11:33:11.659Z,1006.33
2019-05-22T11:34:11.621Z,1006.34
2019-05-22T11:35:11.613Z,1006.36
2019-05-22T11:36:11.596Z,1006.39
2019-05-22T11:37:11.636Z,1006.37
2019-05-22T11:38:11.610Z,1006.43
2019-05-22T11:39:11.585Z,1006.43
2019-05-22T11:40:11.603Z,1006.35
2019-05-22T11:41:11.559Z,1006.45
2019-05-22T11:42:11.547Z,1006.45
2019-05-22T11:43:11.551Z,1006.46
2019-05-22T11:44:11.595Z,1006.44
2019-05-22T11:45:11.532Z,1006.43
2019-05-22T11:46:11.516Z,1006.46
2019-05-22T11:47:11.506Z,1006.44
2019-05-22T11:48:11.552Z,1006.47
2019-05-22T11:49:11.505Z,1006.43
2019-05-22T11:50:11.490Z,1006.36
2019-05-22T11:51:11.495Z,1006.41
2019-05-22T11:52:11.487Z,1006.38
2019-05-22T11:53:11.473Z,1006.40
2019-05-22T11:54:11.548Z,1006.41
2019-05-22T11:55:11.461Z,1006.42
2019-05-22T11:56:11.456Z,1006.38
2019-05-22T11:57:11.434Z,1006.39
2019-05-22T11:58:11.462Z,1006.42
2019-05-22T11:59:11.422Z,1006.41
2019-05-22T12:00:11.423Z,1006.45
2019-05-22T12:01:11.410Z,1006.44
2019-05-22T12:02:11.419Z,1006.48
2019-05-22T12:03:11.416Z,1006.42
2019-05-22T12:04:11.465Z,1006.42
2019-05-22T12:05:11.482Z,1006.47